Balmoral — GRPM — position and weather

sailwx.info

Track history (hours):
 
Tides and Currents Weather Stations Pressure Air Temp Water Temp Dewpoint Dewpoint Depression Visibility Wind Speed Wind Dir Waves Ship Positions

Balmoral

Operator: Waverly Excursions Ltd

Last reported at 2018-May-22 16:12 UTC. Time now 2018-May-24 15:58 UTC.
Position N 55°52' W 004°20'.

Length 73 m; draft 2 m.

Type: Ship. MMSI: 232001540.

Date/timePositionNaut miles runAvg speedWind from/ knotsBaromVisibWave heightAir tempDewpointWater temp
2018-May-22 16:12N 55°52' W 004°20'2 8.5
2018-May-22 16:00N 55°53' W 004°23'611.8
2018-May-22 15:30N 55°56' W 004°32'714.5
2018-May-22 15:01N 55°57' W 004°44'0 0.7
2018-May-22 14:31N 55°57' W 004°45'0 0.0
2018-May-22 14:00N 55°57' W 004°45'0 0.0
2018-May-22 13:31N 55°57' W 004°45'5 9.9
2018-May-22 13:01N 55°56' W 004°54'3 6.4
2018-May-22 12:30N 55°53' W 004°56'1 2.2
2018-May-22 12:00N 55°52' W 004°57'2 4.2
2018-May-22 11:30N 55°50' W 004°57'612.4
2018-May-22 11:00N 55°44' W 004°60'3 6.6
2018-May-22 10:31N 55°47' W 004°59'714.5
2018-May-22 10:00N 55°54' W 004°56'5 9.1
2018-May-22 09:30N 55°58' W 004°52'1 1.1
2018-May-22 09:00N 55°58' W 004°51'4 0.5
2018-May-22 01:03N 55°57' W 004°45'0 0.0
2018-May-22 00:57N 55°57' W 004°45'0 0.0
2018-May-21 14:45N 55°57' W 004°44'0 0.6
2018-May-21 14:27N 55°57' W 004°44'0 0.1
2018-May-21 13:57N 55°57' W 004°44'0 0.0
2018-May-21 13:18N 55°57' W 004°44'0 0.0
2018-May-21 12:57N 55°57' W 004°44'0 0.0
2018-May-21 11:36N 55°57' W 004°44'0 0.0
2018-May-21 09:54N 55°57' W 004°44'0 0.0
2018-May-21 09:30N 55°57' W 004°44'0 0.0
2018-May-21 08:45N 55°57' W 004°44'0 0.0
2018-May-21 08:30N 55°57' W 004°44'0 0.0
2018-May-21 08:00N 55°57' W 004°44'0 0.0
2018-May-21 07:12N 55°57' W 004°44'0 0.0
2018-May-21 05:06N 55°57' W 004°44'0 0.0
2018-May-21 04:54N 55°57' W 004°44'0 0.0
2018-May-21 00:48N 55°57' W 004°44'0 0.0
2018-May-21 00:24N 55°57' W 004°44'0 0.0
2018-May-20 23:54N 55°57' W 004°44'  
2018-May-18 15:27N 55°57' W 004°44'2 0.6
2018-May-18 11:25N 55°56' W 004°40'3 6.8
2018-May-18 10:59N 55°56' W 004°35'3 6.7
2018-May-18 10:30N 55°56' W 004°29'2 4.8
2018-May-18 10:00N 55°54' W 004°25'2 4.9
2018-May-18 09:30N 55°53' W 004°22'  
Track history (hours):
 
Tides and Currents Weather Stations Pressure Air Temp Water Temp Dewpoint Dewpoint Depression Visibility Wind Speed Wind Dir Waves Ship Positions

Balmoral

Operator: Waverly Excursions Ltd

Last reported at 2018-May-22 16:12 UTC. Time now 2018-May-24 15:58 UTC.
Position N 55°52' W 004°20'.

Length 73 m; draft 2 m.

Type: Ship. MMSI: 232001540.

Date/timePositionNaut miles runAvg speedWind from/ knotsBaromVisibWave heightAir tempDewpointWater temp
2018-May-22 16:12N 55°52' W 004°20'2 8.5
2018-May-22 16:00N 55°53' W 004°23'611.8
2018-May-22 15:30N 55°56' W 004°32'714.5
2018-May-22 15:01N 55°57' W 004°44'0 0.7
2018-May-22 14:31N 55°57' W 004°45'0 0.0
2018-May-22 14:00N 55°57' W 004°45'0 0.0
2018-May-22 13:31N 55°57' W 004°45'5 9.9
2018-May-22 13:01N 55°56' W 004°54'3 6.4
2018-May-22 12:30N 55°53' W 004°56'1 2.2
2018-May-22 12:00N 55°52' W 004°57'2 4.2
2018-May-22 11:30N 55°50' W 004°57'612.4
2018-May-22 11:00N 55°44' W 004°60'3 6.6
2018-May-22 10:31N 55°47' W 004°59'714.5
2018-May-22 10:00N 55°54' W 004°56'5 9.1
2018-May-22 09:30N 55°58' W 004°52'1 1.1
2018-May-22 09:00N 55°58' W 004°51'4 0.5
2018-May-22 01:03N 55°57' W 004°45'0 0.0
2018-May-22 00:57N 55°57' W 004°45'0 0.0
2018-May-21 14:45N 55°57' W 004°44'0 0.6
2018-May-21 14:27N 55°57' W 004°44'0 0.1
2018-May-21 13:57N 55°57' W 004°44'0 0.0
2018-May-21 13:18N 55°57' W 004°44'0 0.0
2018-May-21 12:57N 55°57' W 004°44'0 0.0
2018-May-21 11:36N 55°57' W 004°44'0 0.0
2018-May-21 09:54N 55°57' W 004°44'0 0.0
2018-May-21 09:30N 55°57' W 004°44'0 0.0
2018-May-21 08:45N 55°57' W 004°44'0 0.0
2018-May-21 08:30N 55°57' W 004°44'0 0.0
2018-May-21 08:00N 55°57' W 004°44'0 0.0
2018-May-21 07:12N 55°57' W 004°44'0 0.0
2018-May-21 05:06N 55°57' W 004°44'0 0.0
2018-May-21 04:54N 55°57' W 004°44'0 0.0
2018-May-21 00:48N 55°57' W 004°44'0 0.0
2018-May-21 00:24N 55°57' W 004°44'0 0.0
2018-May-20 23:54N 55°57' W 004°44'  
2018-May-18 15:27N 55°57' W 004°44'2 0.6
2018-May-18 11:25N 55°56' W 004°40'3 6.8
2018-May-18 10:59N 55°56' W 004°35'3 6.7
2018-May-18 10:30N 55°56' W 004°29'2 4.8
2018-May-18 10:00N 55°54' W 004°25'2 4.9
2018-May-18 09:30N 55°53' W 004°22'  

Dump ship's entire track history